sensor_id;sensor_type;location;lat;lon;timestamp;P1;durP1;ratioP1;P2;durP2;ratioP2
22468;SDS011;11401;50.792;4.352;2024-01-10T03:05:03;8.97;;;7.00;;
22468;SDS011;11401;50.792;4.352;2024-01-10T03:07:31;9.53;;;6.87;;
22468;SDS011;11401;50.792;4.352;2024-01-10T03:09:58;8.87;;;6.27;;
22468;SDS011;11401;50.792;4.352;2024-01-10T03:12:25;10.30;;;6.93;;
22468;SDS011;11401;50.792;4.352;2024-01-10T03:14:52;10.10;;;6.27;;
22468;SDS011;11401;50.792;4.352;2024-01-10T03:17:18;9.70;;;7.13;;
22468;SDS011;11401;50.792;4.352;2024-01-10T03:19:46;9.50;;;6.80;;
22468;SDS011;11401;50.792;4.352;2024-01-10T03:22:13;7.80;;;6.57;;
22468;SDS011;11401;50.792;4.352;2024-01-10T03:24:40;6.93;;;5.90;;
22468;SDS011;11401;50.792;4.352;2024-01-10T03:27:07;11.37;;;7.03;;
22468;SDS011;11401;50.792;4.352;2024-01-10T03:29:34;7.63;;;6.70;;
22468;SDS011;11401;50.792;4.352;2024-01-10T03:32:01;10.10;;;7.63;;
22468;SDS011;11401;50.792;4.352;2024-01-10T03:34:28;8.70;;;6.83;;
22468;SDS011;11401;50.792;4.352;2024-01-10T03:36:55;10.30;;;6.67;;
22468;SDS011;11401;50.792;4.352;2024-01-10T03:39:22;8.73;;;6.40;;
22468;SDS011;11401;50.792;4.352;2024-01-10T03:41:49;9.80;;;6.85;;
22468;SDS011;11401;50.792;4.352;2024-01-10T03:44:16;8.63;;;6.70;;
22468;SDS011;11401;50.792;4.352;2024-01-10T03:46:43;10.17;;;6.97;;
22468;SDS011;11401;50.792;4.352;2024-01-10T03:49:11;8.70;;;6.23;;
22468;SDS011;11401;50.792;4.352;2024-01-10T03:51:38;8.30;;;6.75;;
22468;SDS011;11401;50.792;4.352;2024-01-10T03:54:06;9.40;;;6.30;;
22468;SDS011;11401;50.792;4.352;2024-01-10T03:56:33;8.13;;;6.47;;
22468;SDS011;11401;50.792;4.352;2024-01-10T03:59:01;7.93;;;6.60;;
22468;SDS011;11401;50.792;4.352;2024-01-10T04:01:28;9.88;;;6.95;;
22468;SDS011;11401;50.792;4.352;2024-01-10T04:03:55;8.20;;;6.47;;
22468;SDS011;11401;50.792;4.352;2024-01-10T04:06:23;9.33;;;6.60;;
22468;SDS011;11401;50.792;4.352;2024-01-10T04:08:51;10.80;;;7.57;;
22468;SDS011;11401;50.792;4.352;2024-01-10T04:11:18;8.83;;;6.90;;
22468;SDS011;11401;50.792;4.352;2024-01-10T04:13:45;10.10;;;7.00;;
22468;SDS011;11401;50.792;4.352;2024-01-10T04:16:12;7.03;;;5.67;;
22468;SDS011;11401;50.792;4.352;2024-01-10T04:18:39;13.03;;;7.37;;
22468;SDS011;11401;50.792;4.352;2024-01-10T04:21:07;8.00;;;6.27;;
22468;SDS011;11401;50.792;4.352;2024-01-10T04:23:35;8.37;;;6.13;;
22468;SDS011;11401;50.792;4.352;2024-01-10T04:26:02;10.83;;;7.50;;
22468;SDS011;11401;50.792;4.352;2024-01-10T04:28:30;10.00;;;7.00;;
22468;SDS011;11401;50.792;4.352;2024-01-10T04:30:57;9.03;;;7.03;;
22468;SDS011;11401;50.792;4.352;2024-01-10T04:33:24;10.90;;;7.50;;
22468;SDS011;11401;50.792;4.352;2024-01-10T04:35:51;9.00;;;7.33;;
22468;SDS011;11401;50.792;4.352;2024-01-10T04:38:18;9.87;;;6.80;;
22468;SDS011;11401;50.792;4.352;2024-01-10T04:40:45;8.07;;;6.60;;
22468;SDS011;11401;50.792;4.352;2024-01-10T04:43:13;9.37;;;7.50;;
22468;SDS011;11401;50.792;4.352;2024-01-10T04:45:40;10.60;;;6.90;;
22468;SDS011;11401;50.792;4.352;2024-01-10T04:48:07;9.33;;;6.87;;
22468;SDS011;11401;50.792;4.352;2024-01-10T04:50:34;8.90;;;6.43;;
22468;SDS011;11401;50.792;4.352;2024-01-10T04:53:02;8.47;;;6.50;;
22468;SDS011;11401;50.792;4.352;2024-01-10T04:55:29;9.43;;;7.17;;
22468;SDS011;11401;50.792;4.352;2024-01-10T04:57:56;10.17;;;7.33;;
22468;SDS011;11401;50.792;4.352;2024-01-10T05:00:23;7.73;;;6.57;;
22468;SDS011;11401;50.792;4.352;2024-01-10T05:02:50;9.20;;;6.30;;
22468;SDS011;11401;50.792;4.352;2024-01-10T05:05:20;11.93;;;6.90;;
22468;SDS011;11401;50.792;4.352;2024-01-10T05:07:50;9.13;;;6.17;;
22468;SDS011;11401;50.792;4.352;2024-01-10T05:10:18;7.23;;;6.07;;
22468;SDS011;11401;50.792;4.352;2024-01-10T05:12:45;8.97;;;7.40;;
22468;SDS011;11401;50.792;4.352;2024-01-10T05:15:12;10.90;;;7.73;;
22468;SDS011;11401;50.792;4.352;2024-01-10T05:17:39;11.27;;;6.43;;
22468;SDS011;11401;50.792;4.352;2024-01-10T05:20:06;8.40;;;6.47;;
22468;SDS011;11401;50.792;4.352;2024-01-10T05:22:34;11.53;;;6.90;;
22468;SDS011;11401;50.792;4.352;2024-01-10T05:25:02;7.63;;;6.73;;
22468;SDS011;11401;50.792;4.352;2024-01-10T05:27:30;9.93;;;7.20;;
22468;SDS011;11401;50.792;4.352;2024-01-10T05:29:58;9.57;;;6.83;;
22468;SDS011;11401;50.792;4.352;2024-01-10T05:32:26;11.83;;;6.70;;
22468;SDS011;11401;50.792;4.352;2024-01-10T05:34:54;9.53;;;6.73;;
22468;SDS011;11401;50.792;4.352;2024-01-10T05:37:21;8.63;;;7.03;;
22468;SDS011;11401;50.792;4.352;2024-01-10T05:39:48;9.00;;;7.20;;
22468;SDS011;11401;50.792;4.352;2024-01-10T05:42:17;10.13;;;7.00;;
22468;SDS011;11401;50.792;4.352;2024-01-10T05:44:45;7.40;;;6.50;;
22468;SDS011;11401;50.792;4.352;2024-01-10T05:47:12;9.90;;;6.63;;
22468;SDS011;11401;50.792;4.352;2024-01-10T05:49:39;11.63;;;7.10;;
22468;SDS011;11401;50.792;4.352;2024-01-10T05:52:06;8.23;;;7.00;;
22468;SDS011;11401;50.792;4.352;2024-01-10T05:54:33;10.20;;;6.90;;
22468;SDS011;11401;50.792;4.352;2024-01-10T05:57:00;10.30;;;6.57;;
22468;SDS011;11401;50.792;4.352;2024-01-10T05:59:28;9.67;;;7.07;;
22468;SDS011;11401;50.792;4.352;2024-01-10T06:01:57;9.13;;;7.17;;
22468;SDS011;11401;50.792;4.352;2024-01-10T06:04:25;11.47;;;7.50;;
22468;SDS011;11401;50.792;4.352;2024-01-10T06:06:54;13.83;;;7.97;;
22468;SDS011;11401;50.792;4.352;2024-01-10T06:09:21;10.33;;;7.40;;
22468;SDS011;11401;50.792;4.352;2024-01-10T06:11:49;11.00;;;7.37;;
22468;SDS011;11401;50.792;4.352;2024-01-10T06:14:16;9.37;;;6.73;;
22468;SDS011;11401;50.792;4.352;2024-01-10T06:16:44;8.90;;;6.67;;
22468;SDS011;11401;50.792;4.352;2024-01-10T06:19:12;8.57;;;6.60;;
22468;SDS011;11401;50.792;4.352;2024-01-10T06:21:39;10.87;;;6.83;;
22468;SDS011;11401;50.792;4.352;2024-01-10T06:24:06;11.43;;;7.43;;
22468;SDS011;11401;50.792;4.352;2024-01-10T06:26:34;10.50;;;7.47;;
22468;SDS011;11401;50.792;4.352;2024-01-10T06:29:01;10.83;;;7.03;;
22468;SDS011;11401;50.792;4.352;2024-01-10T06:31:29;15.20;;;8.80;;
22468;SDS011;11401;50.792;4.352;2024-01-10T06:33:58;14.10;;;8.30;;
22468;SDS011;11401;50.792;4.352;2024-01-10T06:36:26;12.70;;;7.67;;
22468;SDS011;11401;50.792;4.352;2024-01-10T06:38:53;14.23;;;8.00;;
22468;SDS011;11401;50.792;4.352;2024-01-10T06:41:21;13.13;;;8.73;;
22468;SDS011;11401;50.792;4.352;2024-01-10T06:43:51;12.07;;;8.40;;
22468;SDS011;11401;50.792;4.352;2024-01-10T06:46:19;11.57;;;8.10;;
22468;SDS011;11401;50.792;4.352;2024-01-10T06:48:46;16.70;;;8.73;;
22468;SDS011;11401;50.792;4.352;2024-01-10T06:51:14;10.93;;;7.73;;
22468;SDS011;11401;50.792;4.352;2024-01-10T06:53:42;13.27;;;8.53;;
22468;SDS011;11401;50.792;4.352;2024-01-10T06:56:09;12.60;;;7.73;;
22468;SDS011;11401;50.792;4.352;2024-01-10T06:58:38;12.03;;;7.97;;
22468;SDS011;11401;50.792;4.352;2024-01-10T07:01:10;11.63;;;8.10;;
22468;SDS011;11401;50.792;4.352;2024-01-10T07:03:41;12.53;;;9.07;;
22468;SDS011;11401;50.792;4.352;2024-01-10T07:06:09;8.73;;;7.13;;
22468;SDS011;11401;50.792;4.352;2024-01-10T07:08:36;9.97;;;7.37;;
22468;SDS011;11401;50.792;4.352;2024-01-10T07:11:03;12.47;;;7.77;;
22468;SDS011;11401;50.792;4.352;2024-01-10T07:13:30;17.93;;;8.20;;
22468;SDS011;11401;50.792;4.352;2024-01-10T07:15:58;13.67;;;7.73;;
22468;SDS011;11401;50.792;4.352;2024-01-10T07:18:28;8.23;;;6.63;;
22468;SDS011;11401;50.792;4.352;2024-01-10T07:20:57;11.83;;;6.90;;
22468;SDS011;11401;50.792;4.352;2024-01-10T07:23:24;12.37;;;7.93;;
22468;SDS011;11401;50.792;4.352;2024-01-10T07:25:51;9.70;;;7.63;;
22468;SDS011;11401;50.792;4.352;2024-01-10T07:28:19;9.17;;;7.27;;
22468;SDS011;11401;50.792;4.352;2024-01-10T07:30:47;11.10;;;7.63;;
22468;SDS011;11401;50.792;4.352;2024-01-10T07:33:14;10.80;;;7.77;;
22468;SDS011;11401;50.792;4.352;2024-01-10T07:35:42;15.07;;;7.67;;
22468;SDS011;11401;50.792;4.352;2024-01-10T07:38:09;10.70;;;7.17;;
22468;SDS011;11401;50.792;4.352;2024-01-10T07:40:36;11.00;;;7.70;;
22468;SDS011;11401;50.792;4.352;2024-01-10T07:43:04;12.33;;;8.13;;
22468;SDS011;11401;50.792;4.352;2024-01-10T07:45:31;12.57;;;7.53;;
22468;SDS011;11401;50.792;4.352;2024-01-10T07:47:59;11.77;;;7.60;;
22468;SDS011;11401;50.792;4.352;2024-01-10T07:50:27;12.63;;;7.30;;
22468;SDS011;11401;50.792;4.352;2024-01-10T07:52:55;10.07;;;7.57;;
22468;SDS011;11401;50.792;4.352;2024-01-10T07:55:23;11.70;;;8.03;;
22468;SDS011;11401;50.792;4.352;2024-01-10T07:57:50;8.50;;;7.07;;
22468;SDS011;11401;50.792;4.352;2024-01-10T08:00:19;8.50;;;7.07;;
22468;SDS011;11401;50.792;4.352;2024-01-10T08:02:47;10.27;;;6.93;;
22468;SDS011;11401;50.792;4.352;2024-01-10T08:05:16;13.47;;;8.37;;
22468;SDS011;11401;50.792;4.352;2024-01-10T08:07:43;9.63;;;7.60;;
22468;SDS011;11401;50.792;4.352;2024-01-10T08:10:10;11.73;;;8.10;;
22468;SDS011;11401;50.792;4.352;2024-01-10T08:12:37;14.23;;;7.83;;
22468;SDS011;11401;50.792;4.352;2024-01-10T08:15:11;10.10;;;7.73;;
22468;SDS011;11401;50.792;4.352;2024-01-10T08:17:41;16.00;;;8.27;;
22468;SDS011;11401;50.792;4.352;2024-01-10T08:20:10;11.60;;;7.80;;
22468;SDS011;11401;50.792;4.352;2024-01-10T08:22:38;11.97;;;7.90;;
22468;SDS011;11401;50.792;4.352;2024-01-10T08:25:05;10.10;;;7.10;;
22468;SDS011;11401;50.792;4.352;2024-01-10T08:27:33;10.23;;;7.83;;
22468;SDS011;11401;50.792;4.352;2024-01-10T08:30:00;13.57;;;7.80;;
22468;SDS011;11401;50.792;4.352;2024-01-10T08:32:27;11.33;;;7.43;;
22468;SDS011;11401;50.792;4.352;2024-01-10T08:34:54;10.63;;;7.30;;
22468;SDS011;11401;50.792;4.352;2024-01-10T08:37:21;12.30;;;8.27;;
22468;SDS011;11401;50.792;4.352;2024-01-10T08:39:49;11.57;;;8.47;;
22468;SDS011;11401;50.792;4.352;2024-01-10T08:42:17;10.00;;;7.20;;
22468;SDS011;11401;50.792;4.352;2024-01-10T08:44:44;12.60;;;7.63;;
22468;SDS011;11401;50.792;4.352;2024-01-10T08:47:13;11.90;;;8.37;;
22468;SDS011;11401;50.792;4.352;2024-01-10T08:49:40;11.67;;;8.10;;
22468;SDS011;11401;50.792;4.352;2024-01-10T08:52:07;12.30;;;8.30;;
22468;SDS011;11401;50.792;4.352;2024-01-10T08:54:35;21.80;;;9.83;;
22468;SDS011;11401;50.792;4.352;2024-01-10T08:57:02;12.93;;;8.63;;
22468;SDS011;11401;50.792;4.352;2024-01-10T08:59:29;18.10;;;8.43;;
22468;SDS011;11401;50.792;4.352;2024-01-10T09:01:57;13.87;;;8.37;;
22468;SDS011;11401;50.792;4.352;2024-01-10T09:04:24;14.30;;;8.63;;
22468;SDS011;11401;50.792;4.352;2024-01-10T09:06:52;11.33;;;8.23;;
22468;SDS011;11401;50.792;4.352;2024-01-10T09:09:19;13.30;;;7.93;;
22468;SDS011;11401;50.792;4.352;2024-01-10T09:11:47;12.17;;;8.73;;
22468;SDS011;11401;50.792;4.352;2024-01-10T09:14:14;10.00;;;7.47;;
22468;SDS011;11401;50.792;4.352;2024-01-10T09:16:42;11.60;;;8.13;;
22468;SDS011;11401;50.792;4.352;2024-01-10T09:19:09;16.20;;;8.67;;
22468;SDS011;11401;50.792;4.352;2024-01-10T09:21:37;11.50;;;7.70;;
22468;SDS011;11401;50.792;4.352;2024-01-10T09:24:04;10.43;;;7.27;;
22468;SDS011;11401;50.792;4.352;2024-01-10T09:26:52;10.23;;;7.23;;
22468;SDS011;11401;50.792;4.352;2024-01-10T09:29:20;11.73;;;8.13;;
22468;SDS011;11401;50.792;4.352;2024-01-10T09:31:48;14.17;;;9.17;;
22468;SDS011;11401;50.792;4.352;2024-01-10T09:34:16;11.23;;;7.23;;
22468;SDS011;11401;50.792;4.352;2024-01-10T09:36:43;12.43;;;8.17;;
22468;SDS011;11401;50.792;4.352;2024-01-10T09:39:10;13.40;;;8.17;;
22468;SDS011;11401;50.792;4.352;2024-01-10T09:41:45;12.77;;;8.23;;
22468;SDS011;11401;50.792;4.352;2024-01-10T09:44:18;10.77;;;7.50;;
22468;SDS011;11401;50.792;4.352;2024-01-10T09:46:49;12.13;;;8.23;;
22468;SDS011;11401;50.792;4.352;2024-01-10T09:49:19;11.13;;;8.80;;
22468;SDS011;11401;50.792;4.352;2024-01-10T09:51:50;12.10;;;8.30;;
22468;SDS011;11401;50.792;4.352;2024-01-10T09:54:24;12.77;;;8.47;;
22468;SDS011;11401;50.792;4.352;2024-01-10T09:56:55;12.67;;;7.77;;
22468;SDS011;11401;50.792;4.352;2024-01-10T09:59:24;11.83;;;7.63;;
22468;SDS011;11401;50.792;4.352;2024-01-10T10:01:54;13.00;;;7.77;;
22468;SDS011;11401;50.792;4.352;2024-01-10T10:04:27;12.97;;;7.73;;
22468;SDS011;11401;50.792;4.352;2024-01-10T10:06:58;10.50;;;7.13;;
22468;SDS011;11401;50.792;4.352;2024-01-10T10:09:28;10.67;;;7.87;;
22468;SDS011;11401;50.792;4.352;2024-01-10T10:11:58;13.93;;;8.10;;
22468;SDS011;11401;50.792;4.352;2024-01-10T10:14:28;14.50;;;8.30;;
22468;SDS011;11401;50.792;4.352;2024-01-10T10:17:10;15.60;;;7.90;;
22468;SDS011;11401;50.792;4.352;2024-01-10T10:19:44;10.90;;;7.67;;
22468;SDS011;11401;50.792;4.352;2024-01-10T10:22:11;11.40;;;7.57;;
22468;SDS011;11401;50.792;4.352;2024-01-10T10:24:38;11.10;;;8.23;;
22468;SDS011;11401;50.792;4.352;2024-01-10T10:27:08;13.83;;;7.53;;
22468;SDS011;11401;50.792;4.352;2024-01-10T10:29:37;10.18;;;7.88;;
22468;SDS011;11401;50.792;4.352;2024-01-10T10:32:06;11.65;;;8.02;;
22468;SDS011;11401;50.792;4.352;2024-01-10T10:34:35;10.40;;;7.50;;
22468;SDS011;11401;50.792;4.352;2024-01-10T10:37:02;14.75;;;8.65;;
22468;SDS011;11401;50.792;4.352;2024-01-10T10:39:30;11.35;;;7.68;;
22468;SDS011;11401;50.792;4.352;2024-01-10T10:41:57;10.97;;;8.40;;
22468;SDS011;11401;50.792;4.352;2024-01-10T10:44:25;9.77;;;7.82;;
22468;SDS011;11401;50.792;4.352;2024-01-10T10:46:58;17.77;;;8.02;;
22468;SDS011;11401;50.792;4.352;2024-01-10T10:49:40;11.13;;;8.27;;
22468;SDS011;11401;50.792;4.352;2024-01-10T10:52:18;12.53;;;8.77;;
22468;SDS011;11401;50.792;4.352;2024-01-10T10:54:46;12.30;;;8.43;;
22468;SDS011;11401;50.792;4.352;2024-01-10T10:57:14;10.35;;;7.38;;
22468;SDS011;11401;50.792;4.352;2024-01-10T10:59:45;15.77;;;7.63;;
22468;SDS011;11401;50.792;4.352;2024-01-10T11:02:15;10.55;;;7.78;;
22468;SDS011;11401;50.792;4.352;2024-01-10T11:04:51;11.15;;;7.72;;
22468;SDS011;11401;50.792;4.352;2024-01-10T11:07:21;11.68;;;8.73;;
22468;SDS011;11401;50.792;4.352;2024-01-10T11:09:48;13.20;;;8.63;;
22468;SDS011;11401;50.792;4.352;2024-01-10T11:20:51;11.93;;;7.53;;
22468;SDS011;11401;50.792;4.352;2024-01-10T11:26:07;11.30;;;8.20;;
22468;SDS011;11401;50.792;4.352;2024-01-10T11:28:35;13.25;;;8.75;;
22468;SDS011;11401;50.792;4.352;2024-01-10T11:31:06;10.90;;;8.00;;
22468;SDS011;11401;50.792;4.352;2024-01-10T11:33:35;13.70;;;8.30;;
22468;SDS011;11401;50.792;4.352;2024-01-10T11:41:36;11.65;;;8.02;;
22468;SDS011;11401;50.792;4.352;2024-01-10T11:46:46;15.25;;;8.38;;
22468;SDS011;11401;50.792;4.352;2024-01-10T11:49:19;9.23;;;7.80;;
22468;SDS011;11401;50.792;4.352;2024-01-10T11:51:47;12.13;;;7.75;;
22468;SDS011;11401;50.792;4.352;2024-01-10T11:57:10;12.20;;;8.15;;
22468;SDS011;11401;50.792;4.352;2024-01-10T11:59:45;11.68;;;8.25;;
22468;SDS011;11401;50.792;4.352;2024-01-10T12:02:15;10.65;;;7.93;;
22468;SDS011;11401;50.792;4.352;2024-01-10T12:04:44;12.45;;;8.63;;
22468;SDS011;11401;50.792;4.352;2024-01-10T12:07:15;11.07;;;7.88;;
22468;SDS011;11401;50.792;4.352;2024-01-10T12:09:46;10.77;;;8.68;;
22468;SDS011;11401;50.792;4.352;2024-01-10T12:12:13;16.25;;;9.90;;
22468;SDS011;11401;50.792;4.352;2024-01-10T12:14:41;12.43;;;8.30;;
22468;SDS011;11401;50.792;4.352;2024-01-10T12:17:10;12.05;;;7.60;;
22468;SDS011;11401;50.792;4.352;2024-01-10T12:19:38;10.43;;;8.18;;
22468;SDS011;11401;50.792;4.352;2024-01-10T12:22:05;14.25;;;8.80;;
22468;SDS011;11401;50.792;4.352;2024-01-10T12:24:34;11.10;;;7.88;;
22468;SDS011;11401;50.792;4.352;2024-01-10T12:27:10;12.23;;;8.32;;
22468;SDS011;11401;50.792;4.352;2024-01-10T12:29:37;11.45;;;8.15;;
22468;SDS011;11401;50.792;4.352;2024-01-10T12:32:07;11.85;;;8.00;;
22468;SDS011;11401;50.792;4.352;2024-01-10T12:34:39;13.05;;;7.65;;
22468;SDS011;11401;50.792;4.352;2024-01-10T12:37:07;17.17;;;8.13;;
22468;SDS011;11401;50.792;4.352;2024-01-10T12:39:37;11.23;;;7.53;;
22468;SDS011;11401;50.792;4.352;2024-01-10T12:42:05;11.65;;;7.60;;
22468;SDS011;11401;50.792;4.352;2024-01-10T12:44:35;11.05;;;7.75;;
22468;SDS011;11401;50.792;4.352;2024-01-10T12:47:02;16.73;;;9.18;;
22468;SDS011;11401;50.792;4.352;2024-01-10T12:49:32;15.93;;;8.27;;
22468;SDS011;11401;50.792;4.352;2024-01-10T12:52:07;12.60;;;8.68;;
22468;SDS011;11401;50.792;4.352;2024-01-10T12:54:40;11.98;;;8.68;;
22468;SDS011;11401;50.792;4.352;2024-01-10T12:57:09;12.30;;;8.35;;
22468;SDS011;11401;50.792;4.352;2024-01-10T12:59:38;14.00;;;8.35;;
22468;SDS011;11401;50.792;4.352;2024-01-10T13:02:05;13.20;;;9.05;;
22468;SDS011;11401;50.792;4.352;2024-01-10T13:04:33;12.48;;;8.57;;
22468;SDS011;11401;50.792;4.352;2024-01-10T13:07:00;15.95;;;8.07;;
22468;SDS011;11401;50.792;4.352;2024-01-10T13:09:28;12.90;;;8.40;;
22468;SDS011;11401;50.792;4.352;2024-01-10T13:11:55;12.23;;;8.95;;
22468;SDS011;11401;50.792;4.352;2024-01-10T13:14:22;11.05;;;7.97;;
22468;SDS011;11401;50.792;4.352;2024-01-10T13:16:49;13.43;;;9.10;;
22468;SDS011;11401;50.792;4.352;2024-01-10T13:19:25;14.43;;;8.82;;
22468;SDS011;11401;50.792;4.352;2024-01-10T13:21:53;10.40;;;8.25;;
22468;SDS011;11401;50.792;4.352;2024-01-10T13:24:21;18.40;;;8.95;;
22468;SDS011;11401;50.792;4.352;2024-01-10T13:26:49;10.50;;;8.52;;
22468;SDS011;11401;50.792;4.352;2024-01-10T13:29:16;12.10;;;8.43;;
22468;SDS011;11401;50.792;4.352;2024-01-10T13:31:43;12.73;;;8.82;;
22468;SDS011;11401;50.792;4.352;2024-01-10T13:34:11;16.45;;;9.65;;
22468;SDS011;11401;50.792;4.352;2024-01-10T13:36:38;14.70;;;8.45;;
22468;SDS011;11401;50.792;4.352;2024-01-10T13:39:06;11.68;;;8.63;;
22468;SDS011;11401;50.792;4.352;2024-01-10T13:41:34;13.40;;;8.23;;
22468;SDS011;11401;50.792;4.352;2024-01-10T13:44:01;12.50;;;7.97;;
22468;SDS011;11401;50.792;4.352;2024-01-10T13:46:28;16.17;;;8.85;;
22468;SDS011;11401;50.792;4.352;2024-01-10T13:48:55;14.45;;;9.38;;
22468;SDS011;11401;50.792;4.352;2024-01-10T13:51:22;12.15;;;8.77;;
22468;SDS011;11401;50.792;4.352;2024-01-10T13:53:49;9.55;;;7.70;;
22468;SDS011;11401;50.792;4.352;2024-01-10T13:56:16;13.15;;;9.05;;
22468;SDS011;11401;50.792;4.352;2024-01-10T13:58:44;12.40;;;8.73;;
22468;SDS011;11401;50.792;4.352;2024-01-10T14:01:11;12.15;;;7.82;;
22468;SDS011;11401;50.792;4.352;2024-01-10T14:03:38;18.27;;;9.00;;
22468;SDS011;11401;50.792;4.352;2024-01-10T14:06:06;12.20;;;8.70;;
22468;SDS011;11401;50.792;4.352;2024-01-10T14:08:33;14.10;;;8.38;;
22468;SDS011;11401;50.792;4.352;2024-01-10T14:11:00;14.45;;;9.30;;
22468;SDS011;11401;50.792;4.352;2024-01-10T14:13:27;12.65;;;8.52;;
22468;SDS011;11401;50.792;4.352;2024-01-10T14:15:54;11.30;;;8.70;;
22468;SDS011;11401;50.792;4.352;2024-01-10T14:18:22;16.92;;;8.57;;
22468;SDS011;11401;50.792;4.352;2024-01-10T14:20:49;16.85;;;8.98;;
22468;SDS011;11401;50.792;4.352;2024-01-10T14:23:17;16.30;;;9.55;;
22468;SDS011;11401;50.792;4.352;2024-01-10T14:25:48;14.85;;;9.00;;
22468;SDS011;11401;50.792;4.352;2024-01-10T14:28:15;14.15;;;7.85;;
22468;SDS011;11401;50.792;4.352;2024-01-10T14:30:42;12.43;;;7.93;;
22468;SDS011;11401;50.792;4.352;2024-01-10T14:33:09;12.15;;;8.57;;
22468;SDS011;11401;50.792;4.352;2024-01-10T14:35:39;11.35;;;7.95;;
22468;SDS011;11401;50.792;4.352;2024-01-10T14:38:07;13.55;;;9.25;;
22468;SDS011;11401;50.792;4.352;2024-01-10T14:40:34;13.23;;;8.23;;
22468;SDS011;11401;50.792;4.352;2024-01-10T14:43:02;14.40;;;9.35;;
22468;SDS011;11401;50.792;4.352;2024-01-10T14:45:30;13.05;;;9.05;;
22468;SDS011;11401;50.792;4.352;2024-01-10T14:47:57;15.27;;;8.43;;
22468;SDS011;11401;50.792;4.352;2024-01-10T14:50:25;14.98;;;9.02;;
22468;SDS011;11401;50.792;4.352;2024-01-10T14:52:53;16.50;;;8.88;;
22468;SDS011;11401;50.792;4.352;2024-01-10T14:55:20;12.68;;;8.82;;
22468;SDS011;11401;50.792;4.352;2024-01-10T14:57:47;13.35;;;9.77;;
22468;SDS011;11401;50.792;4.352;2024-01-10T15:00:15;13.82;;;9.13;;
22468;SDS011;11401;50.792;4.352;2024-01-10T15:02:42;14.43;;;9.25;;
22468;SDS011;11401;50.792;4.352;2024-01-10T15:05:10;12.13;;;8.57;;
22468;SDS011;11401;50.792;4.352;2024-01-10T15:07:39;11.77;;;8.57;;
22468;SDS011;11401;50.792;4.352;2024-01-10T15:10:06;13.85;;;9.05;;
22468;SDS011;11401;50.792;4.352;2024-01-10T15:12:34;15.25;;;9.20;;
22468;SDS011;11401;50.792;4.352;2024-01-10T15:15:01;14.18;;;8.95;;
22468;SDS011;11401;50.792;4.352;2024-01-10T15:17:28;13.32;;;8.82;;
22468;SDS011;11401;50.792;4.352;2024-01-10T15:19:55;15.48;;;9.10;;
22468;SDS011;11401;50.792;4.352;2024-01-10T15:22:22;15.10;;;9.20;;
22468;SDS011;11401;50.792;4.352;2024-01-10T15:24:50;15.05;;;9.93;;
22468;SDS011;11401;50.792;4.352;2024-01-10T15:27:17;14.13;;;9.05;;
22468;SDS011;11401;50.792;4.352;2024-01-10T15:29:45;10.95;;;8.10;;
22468;SDS011;11401;50.792;4.352;2024-01-10T15:32:22;16.30;;;9.95;;
22468;SDS011;11401;50.792;4.352;2024-01-10T15:34:49;14.45;;;9.23;;
22468;SDS011;11401;50.792;4.352;2024-01-10T15:37:17;12.40;;;9.00;;
22468;SDS011;11401;50.792;4.352;2024-01-10T15:39:45;12.57;;;9.77;;
22468;SDS011;11401;50.792;4.352;2024-01-10T15:42:12;13.57;;;9.25;;
22468;SDS011;11401;50.792;4.352;2024-01-10T15:44:41;16.02;;;10.10;;
22468;SDS011;11401;50.792;4.352;2024-01-10T15:47:09;13.85;;;9.55;;
22468;SDS011;11401;50.792;4.352;2024-01-10T15:49:36;16.08;;;10.85;;
22468;SDS011;11401;50.792;4.352;2024-01-10T15:52:04;16.40;;;9.98;;
22468;SDS011;11401;50.792;4.352;2024-01-10T15:54:31;13.60;;;9.25;;
22468;SDS011;11401;50.792;4.352;2024-01-10T15:57:04;13.40;;;9.90;;
22468;SDS011;11401;50.792;4.352;2024-01-10T15:59:32;14.95;;;9.02;;
22468;SDS011;11401;50.792;4.352;2024-01-10T16:01:59;12.45;;;8.68;;
22468;SDS011;11401;50.792;4.352;2024-01-10T16:04:28;13.55;;;9.75;;
22468;SDS011;11401;50.792;4.352;2024-01-10T16:06:55;14.43;;;9.32;;
22468;SDS011;11401;50.792;4.352;2024-01-10T16:09:22;12.32;;;8.85;;
22468;SDS011;11401;50.792;4.352;2024-01-10T16:11:50;12.52;;;8.93;;
22468;SDS011;11401;50.792;4.352;2024-01-10T16:14:17;14.55;;;9.85;;
22468;SDS011;11401;50.792;4.352;2024-01-10T16:16:44;12.50;;;8.93;;
22468;SDS011;11401;50.792;4.352;2024-01-10T16:19:11;13.63;;;9.20;;
22468;SDS011;11401;50.792;4.352;2024-01-10T16:21:39;15.25;;;9.73;;
22468;SDS011;11401;50.792;4.352;2024-01-10T16:24:07;14.68;;;9.27;;
22468;SDS011;11401;50.792;4.352;2024-01-10T16:26:36;13.32;;;9.52;;
22468;SDS011;11401;50.792;4.352;2024-01-10T16:29:03;16.08;;;10.68;;
22468;SDS011;11401;50.792;4.352;2024-01-10T16:31:30;15.98;;;10.32;;
22468;SDS011;11401;50.792;4.352;2024-01-10T16:33:58;13.77;;;8.98;;
22468;SDS011;11401;50.792;4.352;2024-01-10T16:36:25;14.88;;;9.88;;
22468;SDS011;11401;50.792;4.352;2024-01-10T16:38:54;15.70;;;9.95;;
22468;SDS011;11401;50.792;4.352;2024-01-10T16:41:22;15.65;;;11.07;;
22468;SDS011;11401;50.792;4.352;2024-01-10T16:43:49;18.25;;;10.77;;
22468;SDS011;11401;50.792;4.352;2024-01-10T16:46:16;15.23;;;10.15;;
22468;SDS011;11401;50.792;4.352;2024-01-10T16:48:43;14.13;;;10.68;;
22468;SDS011;11401;50.792;4.352;2024-01-10T16:51:10;18.55;;;9.48;;
22468;SDS011;11401;50.792;4.352;2024-01-10T16:53:38;16.77;;;9.43;;
22468;SDS011;11401;50.792;4.352;2024-01-10T16:56:05;16.15;;;9.93;;
22468;SDS011;11401;50.792;4.352;2024-01-10T16:58:33;13.50;;;9.18;;
22468;SDS011;11401;50.792;4.352;2024-01-10T17:01:01;14.65;;;9.40;;
22468;SDS011;11401;50.792;4.352;2024-01-10T17:03:28;14.68;;;10.15;;
22468;SDS011;11401;50.792;4.352;2024-01-10T17:05:56;14.38;;;9.93;;
22468;SDS011;11401;50.792;4.352;2024-01-10T17:08:24;15.90;;;10.52;;
22468;SDS011;11401;50.792;4.352;2024-01-10T17:10:54;14.20;;;9.63;;
22468;SDS011;11401;50.792;4.352;2024-01-10T17:13:21;16.02;;;9.77;;
22468;SDS011;11401;50.792;4.352;2024-01-10T17:15:50;16.65;;;10.10;;
22468;SDS011;11401;50.792;4.352;2024-01-10T17:18:17;16.02;;;9.73;;
22468;SDS011;11401;50.792;4.352;2024-01-10T17:20:45;16.30;;;9.20;;
22468;SDS011;11401;50.792;4.352;2024-01-10T17:23:13;16.67;;;10.13;;
22468;SDS011;11401;50.792;4.352;2024-01-10T17:25:41;16.92;;;9.73;;
22468;SDS011;11401;50.792;4.352;2024-01-10T17:28:11;14.07;;;9.30;;
22468;SDS011;11401;50.792;4.352;2024-01-10T17:30:39;13.45;;;9.43;;
22468;SDS011;11401;50.792;4.352;2024-01-10T17:33:07;15.55;;;9.77;;
22468;SDS011;11401;50.792;4.352;2024-01-10T17:35:37;12.07;;;8.43;;
22468;SDS011;11401;50.792;4.352;2024-01-10T17:38:05;15.15;;;9.98;;
22468;SDS011;11401;50.792;4.352;2024-01-10T17:40:35;19.98;;;10.32;;
22468;SDS011;11401;50.792;4.352;2024-01-10T17:43:02;13.98;;;9.60;;
22468;SDS011;11401;50.792;4.352;2024-01-10T17:45:30;20.88;;;9.70;;
22468;SDS011;11401;50.792;4.352;2024-01-10T17:47:58;16.42;;;10.65;;
22468;SDS011;11401;50.792;4.352;2024-01-10T17:50:25;15.60;;;10.40;;
22468;SDS011;11401;50.792;4.352;2024-01-10T17:52:53;14.57;;;9.80;;
22468;SDS011;11401;50.792;4.352;2024-01-10T17:55:21;15.15;;;10.05;;
22468;SDS011;11401;50.792;4.352;2024-01-10T17:57:48;18.02;;;10.95;;
22468;SDS011;11401;50.792;4.352;2024-01-10T18:00:16;18.25;;;11.63;;
22468;SDS011;11401;50.792;4.352;2024-01-10T18:02:43;18.13;;;11.38;;
22468;SDS011;11401;50.792;4.352;2024-01-10T18:05:12;16.77;;;10.80;;
22468;SDS011;11401;50.792;4.352;2024-01-10T18:07:39;17.67;;;10.90;;